This is the latest recevied weather packets stored in our database for station/object KD9JOU-13. If no packets are shown the sender has not sent any weather packets the latest 1 day(s).
| Time | Temp. | Humidity | Pressure | Rain* | Wind** | Luminosity | Snow |
|---|---|---|---|---|---|---|---|
| 1778092111 | 15° C | 57% | 1015.7 hPa | - | - | - | - |
| 1778091812 | 14.44° C | 57% | 1015.7 hPa | - | - | - | - |
| 1778090612 | 13.89° C | 58% | 1016 hPa | - | - | - | - |
| 1778090312 | 13.89° C | 56% | 1016 hPa | - | - | - | - |
| 1778088512 | 13.33° C | 61% | 1015.9 hPa | - | - | - | - |
| 1778087312 | 13.33° C | 65% | 1015.9 hPa | - | - | - | - |
| 1778082512 | 12.22° C | 70% | 1016.1 hPa | - | - | - | - |
| 1778082212 | 12.22° C | 71% | 1016 hPa | - | - | - | - |
| 1778081011 | 12.22° C | 70% | 1015.8 hPa | - | - | - | - |
| 1778078911 | 11.11° C | 76% | 1016 hPa | - | - | - | - |
| 1778078311 | 10.56° C | 78% | 1016 hPa | - | - | - | - |
| 1778077712 | 10.56° C | 78% | 1016 hPa | - | - | - | - |
| 1778076812 | 10.56° C | 78% | 1015.6 hPa | - | - | - | - |
| 1778076512 | 10.56° C | 79% | 1015.5 hPa | - | - | - | - |
| 1778075611 | 10° C | 83% | 1015 hPa | - | - | - | - |
| 1778075312 | 10° C | 83% | 1015.1 hPa | - | - | - | - |
| 1778074712 | 10° C | 84% | 1015.1 hPa | - | - | - | - |
| 1778071412 | 8.33° C | 92% | 1014.7 hPa | - | - | - | - |
| 1778071112 | 8.33° C | 93% | 1014.7 hPa | - | - | - | - |
| 1778069912 | 8.33° C | 94% | 1014.5 hPa | - | - | - | - |
| 1778068712 | 7.78° C | 94% | 1014.3 hPa | - | - | - | - |
| 1778066914 | 7.78° C | 94% | 1013.4 hPa | - | - | - | - |
| 1778066011 | 7.78° C | 94% | 1013.1 hPa | - | - | - | - |
| 1778064515 | 7.78° C | 95% | 1013.7 hPa | - | - | - | - |
| 1778063911 | 7.78° C | 95% | 1013.5 hPa | - | - | - | - |
* Rain since midnight (hover to see other rain measurements)
** Current wind speed in m/s (hover to see current wind gust speed)